Time;durP1;ratioP1;P1;durP2;ratioP2;P2;SDS_P1;SDS_P2;PMS_P1;PMS_P2;Temp;Humidity;BMP_temperature;BMP_pressure;BME280_temperature;BME280_humidity;BME280_pressure;Samples;Min_cycle;Max_cycle;Signal;HPM_P1;HPM_P2
2022/10/23 00:01:41;;;;;;;;;;;15.80;58.80;;;;;;4993527;28;19996;-87
2022/10/23 00:04:12;;;;;;;;;;;15.80;58.80;;;;;;4993838;28;20482;-89
2022/10/23 00:06:38;;;;;;;;;;;15.80;59.00;;;;;;4994305;28;19944;-88
2022/10/23 00:09:05;;;;;;;;;;;15.80;59.00;;;;;;4975790;28;20365;-88
2022/10/23 00:11:32;;;;;;;;;;;15.80;59.00;;;;;;4976110;28;19910;-88
2022/10/23 00:13:59;;;;;;;;;;;15.80;59.10;;;;;;4994063;28;19910;-88
2022/10/23 00:16:25;;;;;;;;;;;15.80;59.10;;;;;;4975854;28;20344;-89
2022/10/23 00:18:51;;;;;;;;;;;15.80;59.20;;;;;;4992788;28;19913;-89
2022/10/23 00:21:17;;;;;;;;;;;15.80;59.20;;;;;;4975812;28;20088;-88
2022/10/23 00:23:43;;;;;;;;;;;15.80;59.20;;;;;;4976290;28;20448;-89
2022/10/23 00:26:15;;;;;;;;;;;15.80;59.20;;;;;;4976401;28;19926;-89
2022/10/23 00:28:42;;;;;;;;;;;15.80;59.20;;;;;;4982401;28;19914;-89
2022/10/23 00:31:08;;;;;;;;;;;15.80;59.30;;;;;;4993404;28;19924;-89
2022/10/23 00:33:35;;;;;;;;;;;15.80;59.30;;;;;;4977149;28;20300;-88
2022/10/23 00:36:02;;;;;;;;;;;15.80;59.20;;;;;;4995306;28;19921;-88
2022/10/23 00:38:28;;;;;;;;;;;15.80;59.20;;;;;;4993418;28;20364;-89
2022/10/23 00:40:54;;;;;;;;;;;15.70;59.30;;;;;;4976488;28;19918;-89
2022/10/23 00:43:22;;;;;;;;;;;15.70;59.30;;;;;;4999707;28;20423;-88
2022/10/23 00:45:48;;;;;;;;;;;15.70;59.20;;;;;;4994097;28;19932;-88
2022/10/23 00:48:13;;;;;;;;;;;15.70;59.20;;;;;;4994548;28;20352;-89
2022/10/23 00:50:39;;;;;;;;;;;15.60;59.30;;;;;;4998137;28;19918;-88
2022/10/23 00:53:05;;;;;;;;;;;15.60;59.30;;;;;;4982131;28;19930;-89
2022/10/23 00:55:31;;;;;;;;;;;15.60;59.30;;;;;;4992718;28;19960;-89
2022/10/23 00:57:57;;;;;;;;;;;15.50;59.30;;;;;;4979380;28;19925;-89
2022/10/23 01:00:28;;;;;;;;;;;15.50;59.30;;;;;;4997358;28;19922;-89
2022/10/23 01:02:54;;;;;;;;;;;15.50;59.30;;;;;;4995034;28;19909;-88
2022/10/23 01:05:23;;;;;;;;;;;15.40;59.30;;;;;;4994557;28;20307;-88
2022/10/23 01:08:01;;;;;;;;;;;15.40;59.50;;;;;;5014177;28;20020;-87
2022/10/23 01:10:27;;;;;;;;;;;15.40;59.60;;;;;;4999307;28;19929;-87
2022/10/23 01:12:57;;;;;;;;;;;15.40;59.70;;;;;;4994535;28;19909;-89
2022/10/23 01:15:28;;;;;;;;;;;15.30;59.70;;;;;;5011764;28;20399;-89
2022/10/23 01:18:20;;;;;;;;;;;15.30;59.80;;;;;;4995598;28;19916;-91
2022/10/23 01:21:01;;;;;;;;;;;15.30;59.80;;;;;;5000283;28;19968;-90
2022/10/23 01:23:40;;;;;;;;;;;15.30;59.80;;;;;;5010146;28;19909;-88
2022/10/23 01:26:25;;;;;;;;;;;15.20;59.80;;;;;;5010543;28;19932;-87
2022/10/23 01:28:58;;;;;;;;;;;15.20;59.80;;;;;;5010528;28;19917;-89
2022/10/23 01:31:27;;;;;;;;;;;15.20;59.90;;;;;;5009386;28;19944;-88
2022/10/23 01:33:57;;;;;;;;;;;15.20;60.00;;;;;;5009885;28;19948;-87
2022/10/23 01:36:25;;;;;;;;;;;15.20;60.00;;;;;;4988060;28;20258;-88
2022/10/23 01:38:59;;;;;;;;;;;15.20;60.00;;;;;;5011271;28;19921;-89
2022/10/23 01:41:28;;;;;;;;;;;15.20;60.10;;;;;;5008979;28;19922;-90
2022/10/23 01:44:00;;;;;;;;;;;15.20;60.10;;;;;;5009892;28;19921;-88
2022/10/23 01:46:27;;;;;;;;;;;15.20;60.20;;;;;;5001504;28;20384;-90
2022/10/23 01:48:53;;;;;;;;;;;15.10;60.20;;;;;;4988743;28;19913;-90
2022/10/23 01:51:20;;;;;;;;;;;15.20;60.40;;;;;;5009462;28;19920;-89
2022/10/23 01:53:47;;;;;;;;;;;15.20;60.40;;;;;;5010142;28;19913;-87
2022/10/23 01:56:17;;;;;;;;;;;15.10;60.40;;;;;;4990256;28;20592;-88
2022/10/23 01:58:44;;;;;;;;;;;15.10;60.50;;;;;;4989502;28;20005;-88
2022/10/23 02:01:12;;;;;;;;;;;15.10;60.40;;;;;;4988610;28;19969;-89
2022/10/23 02:03:38;;;;;;;;;;;15.10;60.30;;;;;;4986890;28;19918;-89
2022/10/23 02:06:04;;;;;;;;;;;15.00;60.20;;;;;;4964926;28;19933;-87
2022/10/23 02:08:30;;;;;;;;;;;15.00;60.40;;;;;;4972353;28;19917;-90
2022/10/23 02:11:04;;;;;;;;;;;15.00;60.40;;;;;;4992157;28;19997;-87
2022/10/23 02:13:30;;;;;;;;;;;15.00;60.30;;;;;;4992783;28;19917;-88
2022/10/23 02:16:11;;;;;;;;;;;14.90;60.20;;;;;;4965796;28;19972;-89
2022/10/23 02:18:36;;;;;;;;;;;14.90;60.20;;;;;;4984602;28;19914;-89
2022/10/23 02:21:06;;;;;;;;;;;14.90;60.20;;;;;;4987347;28;19918;-89
2022/10/23 02:23:34;;;;;;;;;;;14.80;60.20;;;;;;4975222;28;19922;-89
2022/10/23 02:26:08;;;;;;;;;;;14.80;60.30;;;;;;4966755;28;19929;-89
2022/10/23 02:28:39;;;;;;;;;;;14.80;60.30;;;;;;4987668;28;19913;-87
2022/10/23 02:31:07;;;;;;;;;;;14.80;60.40;;;;;;4969297;28;20130;-90
2022/10/23 02:33:33;;;;;;;;;;;14.70;60.60;;;;;;4991005;28;19914;-89
2022/10/23 02:35:59;;;;;;;;;;;14.80;60.80;;;;;;4995293;28;19917;-89
2022/10/23 02:38:30;;;;;;;;;;;14.80;60.80;;;;;;4981751;28;20395;-89
2022/10/23 02:41:05;;;;;;;;;;;14.80;60.80;;;;;;4995546;28;20372;-88
2022/10/23 02:43:33;;;;;;;;;;;14.80;60.80;;;;;;4994384;28;19981;-89
2022/10/23 02:46:06;;;;;;;;;;;14.80;60.90;;;;;;4995027;28;19925;-88
2022/10/23 02:48:36;;;;;;;;;;;14.80;60.80;;;;;;4981033;28;19910;-88
2022/10/23 02:51:06;;;;;;;;;;;14.80;60.90;;;;;;4995062;28;20303;-88
2022/10/23 02:53:40;;;;;;;;;;;14.80;60.90;;;;;;4997631;28;20353;-87
2022/10/23 02:56:21;;;;;;;;;;;14.80;60.80;;;;;;5001697;28;20310;-89
2022/10/23 02:58:55;;;;;;;;;;;14.80;60.90;;;;;;4994411;28;20008;-88
2022/10/23 03:01:23;;;;;;;;;;;14.80;60.90;;;;;;4979406;28;19961;-89
2022/10/23 03:03:54;;;;;;;;;;;14.80;60.90;;;;;;4977803;28;19910;-90
2022/10/23 03:06:21;;;;;;;;;;;14.80;60.80;;;;;;4969135;28;19926;-90
2022/10/23 03:08:56;;;;;;;;;;;14.80;60.70;;;;;;4964193;28;19921;-90
2022/10/23 03:11:22;;;;;;;;;;;14.70;60.60;;;;;;4989648;28;19975;-87
2022/10/23 03:13:48;;;;;;;;;;;14.70;60.60;;;;;;4993810;28;20009;-90
2022/10/23 03:16:14;;;;;;;;;;;14.60;60.50;;;;;;4995492;28;19929;-87
2022/10/23 03:18:41;;;;;;;;;;;14.60;60.60;;;;;;4990313;28;19924;-89
2022/10/23 03:21:07;;;;;;;;;;;14.60;60.60;;;;;;4961057;28;19919;-89
2022/10/23 03:23:33;;;;;;;;;;;14.60;60.70;;;;;;4975047;28;19945;-88
2022/10/23 03:25:59;;;;;;;;;;;14.60;60.80;;;;;;4961058;28;20023;-89
2022/10/23 03:28:25;;;;;;;;;;;14.60;60.80;;;;;;4993811;28;21926;-89
2022/10/23 03:30:50;;;;;;;;;;;14.60;60.80;;;;;;4998692;28;19922;-90
2022/10/23 03:33:16;;;;;;;;;;;14.50;60.70;;;;;;4991424;28;19918;-90
2022/10/23 03:35:42;;;;;;;;;;;14.50;60.80;;;;;;4994240;28;19918;-89
2022/10/23 03:38:08;;;;;;;;;;;14.50;61.00;;;;;;4998030;28;19918;-90
2022/10/23 03:40:34;;;;;;;;;;;14.50;61.10;;;;;;4995294;28;19918;-88
2022/10/23 03:43:00;;;;;;;;;;;14.50;61.10;;;;;;4980752;28;19920;-90
2022/10/23 03:45:26;;;;;;;;;;;14.50;61.10;;;;;;4989911;28;19930;-88
2022/10/23 03:47:52;;;;;;;;;;;14.40;61.20;;;;;;4978691;28;19997;-89
2022/10/23 03:50:17;;;;;;;;;;;14.40;61.10;;;;;;4992849;28;20365;-88
2022/10/23 03:52:44;;;;;;;;;;;14.50;61.10;;;;;;4974768;28;19910;-89
2022/10/23 03:55:09;;;;;;;;;;;14.40;61.10;;;;;;4965140;28;19918;-90
2022/10/23 03:57:36;;;;;;;;;;;14.40;61.00;;;;;;4988184;28;19940;-87
2022/10/23 04:00:02;;;;;;;;;;;14.40;60.90;;;;;;4996547;28;19964;-89
2022/10/23 04:02:28;;;;;;;;;;;14.30;60.80;;;;;;4995763;28;19914;-87
2022/10/23 04:04:54;;;;;;;;;;;14.30;60.80;;;;;;4995620;28;19948;-88
2022/10/23 04:07:20;;;;;;;;;;;14.30;60.80;;;;;;5014304;28;20503;-88
2022/10/23 04:09:46;;;;;;;;;;;14.30;60.80;;;;;;5017762;28;19960;-86
2022/10/23 04:12:12;;;;;;;;;;;14.20;60.90;;;;;;5001740;28;20407;-88
2022/10/23 04:14:38;;;;;;;;;;;14.20;61.00;;;;;;4996669;28;19924;-88
2022/10/23 04:17:05;;;;;;;;;;;14.20;61.10;;;;;;5014056;28;20592;-89
2022/10/23 04:19:30;;;;;;;;;;;14.20;61.30;;;;;;5016070;28;19921;-89
2022/10/23 04:21:56;;;;;;;;;;;14.30;61.50;;;;;;4996770;28;19909;-88
2022/10/23 04:24:22;;;;;;;;;;;14.30;61.70;;;;;;5013370;28;19917;-87
2022/10/23 04:26:48;;;;;;;;;;;14.30;61.70;;;;;;4995180;28;20459;-86
2022/10/23 04:29:14;;;;;;;;;;;14.30;61.90;;;;;;5009540;28;19917;-88
2022/10/23 04:31:40;;;;;;;;;;;14.40;62.00;;;;;;5010236;28;20393;-89
2022/10/23 04:34:06;;;;;;;;;;;14.40;62.00;;;;;;4990057;28;19916;-88
2022/10/23 04:36:32;;;;;;;;;;;14.50;62.00;;;;;;5012768;28;20442;-87
2022/10/23 04:38:58;;;;;;;;;;;14.50;62.00;;;;;;4996433;28;19968;-89
2022/10/23 04:41:24;;;;;;;;;;;14.50;62.00;;;;;;4987718;28;19967;-89
2022/10/23 04:43:50;;;;;;;;;;;14.50;61.90;;;;;;4987509;28;19983;-89
2022/10/23 04:46:16;;;;;;;;;;;14.50;62.00;;;;;;5012097;28;19925;-89
2022/10/23 04:48:42;;;;;;;;;;;14.60;62.10;;;;;;4996502;28;19952;-89
2022/10/23 04:51:10;;;;;;;;;;;14.60;62.20;;;;;;4996854;28;20012;-89
2022/10/23 04:53:37;;;;;;;;;;;14.60;62.20;;;;;;4996472;28;19929;-89
2022/10/23 04:56:03;;;;;;;;;;;14.60;62.30;;;;;;4978726;28;20512;-89
2022/10/23 04:58:29;;;;;;;;;;;14.70;62.50;;;;;;5007321;28;19921;-89
2022/10/23 05:00:55;;;;;;;;;;;14.70;62.50;;;;;;4982804;28;20264;-90
2022/10/23 05:03:21;;;;;;;;;;;14.70;62.50;;;;;;5007303;28;20016;-88
2022/10/23 05:05:47;;;;;;;;;;;14.70;62.40;;;;;;4994403;28;19925;-89
2022/10/23 05:08:13;;;;;;;;;;;14.80;62.30;;;;;;4991054;28;19914;-88
2022/10/23 05:10:40;;;;;;;;;;;14.80;62.20;;;;;;4983640;28;20004;-89
2022/10/23 05:13:06;;;;;;;;;;;14.80;62.20;;;;;;4987504;28;20282;-87
2022/10/23 05:15:32;;;;;;;;;;;14.80;62.40;;;;;;4985907;28;20285;-88
2022/10/23 05:18:01;;;;;;;;;;;14.80;62.50;;;;;;5007995;28;19917;-89
2022/10/23 05:20:29;;;;;;;;;;;14.90;62.50;;;;;;5007973;28;21210;-89
2022/10/23 05:22:55;;;;;;;;;;;14.90;62.70;;;;;;4998365;28;19918;-90
2022/10/23 05:25:21;;;;;;;;;;;14.90;62.60;;;;;;4981288;28;19930;-89
2022/10/23 05:27:47;;;;;;;;;;;14.90;62.60;;;;;;4980918;28;19975;-88
2022/10/23 05:30:13;;;;;;;;;;;14.90;62.40;;;;;;5007509;28;19917;-89
2022/10/23 05:32:39;;;;;;;;;;;14.90;62.40;;;;;;5009543;28;19921;-87
2022/10/23 05:35:25;;;;;;;;;;;14.90;62.50;;;;;;5015198;28;19942;-89
2022/10/23 05:37:52;;;;;;;;;;;15.00;62.70;;;;;;5007093;28;20318;-88
2022/10/23 05:40:18;;;;;;;;;;;15.00;62.80;;;;;;5008069;28;19944;-89
2022/10/23 05:42:44;;;;;;;;;;;15.00;62.80;;;;;;4992524;28;19918;-88
2022/10/23 05:45:10;;;;;;;;;;;15.00;62.60;;;;;;4984174;28;19969;-87
2022/10/23 05:47:36;;;;;;;;;;;15.00;62.30;;;;;;4991982;28;19920;-89
2022/10/23 05:50:02;;;;;;;;;;;15.00;62.40;;;;;;5014540;28;19987;-89
2022/10/23 05:52:28;;;;;;;;;;;15.00;62.40;;;;;;5010430;28;19918;-87
2022/10/23 05:54:53;;;;;;;;;;;15.00;62.60;;;;;;5013088;28;19917;-91
2022/10/23 05:57:19;;;;;;;;;;;15.00;63.10;;;;;;4997576;28;19917;-86
2022/10/23 05:59:45;;;;;;;;;;;15.10;63.30;;;;;;4989690;28;19918;-88
2022/10/23 06:02:11;;;;;;;;;;;15.20;63.50;;;;;;5009864;28;20018;-89
2022/10/23 06:04:37;;;;;;;;;;;15.20;63.60;;;;;;5016435;28;19921;-88
2022/10/23 06:07:03;;;;;;;;;;;15.30;63.70;;;;;;5012973;28;19910;-87
2022/10/23 06:09:29;;;;;;;;;;;15.30;63.70;;;;;;4996167;28;19918;-89
2022/10/23 06:11:54;;;;;;;;;;;15.30;63.50;;;;;;5017576;28;20013;-88
2022/10/23 06:14:21;;;;;;;;;;;15.40;63.60;;;;;;4999731;28;19925;-89
2022/10/23 06:16:46;;;;;;;;;;;15.40;63.80;;;;;;5015708;28;19956;-88
2022/10/23 06:19:12;;;;;;;;;;;15.50;64.00;;;;;;5000108;28;19918;-88
2022/10/23 06:21:39;;;;;;;;;;;15.50;64.10;;;;;;4995974;28;19909;-89
2022/10/23 06:24:05;;;;;;;;;;;15.60;64.30;;;;;;5010266;28;19913;-89
2022/10/23 06:26:31;;;;;;;;;;;15.70;64.30;;;;;;5016042;28;19926;-89
2022/10/23 06:28:57;;;;;;;;;;;15.70;64.30;;;;;;4999837;28;19909;-89
2022/10/23 06:31:25;;;;;;;;;;;15.80;64.50;;;;;;4997592;28;20584;-90
2022/10/23 06:33:51;;;;;;;;;;;15.90;64.60;;;;;;5005257;28;19917;-88
2022/10/23 06:36:17;;;;;;;;;;;15.90;64.70;;;;;;5022107;28;19913;-89
2022/10/23 06:38:43;;;;;;;;;;;16.00;64.70;;;;;;5027450;28;19910;-88
2022/10/23 06:41:15;;;;;;;;;;;16.10;64.70;;;;;;4999978;28;19918;-88
2022/10/23 06:43:41;;;;;;;;;;;16.20;64.70;;;;;;5003913;28;19920;-88
2022/10/23 06:46:07;;;;;;;;;;;16.20;64.60;;;;;;4997698;28;19925;-89
2022/10/23 06:48:32;;;;;;;;;;;16.30;64.60;;;;;;5020025;28;20380;-89
2022/10/23 06:50:58;;;;;;;;;;;16.40;64.60;;;;;;4997553;28;19921;-88
2022/10/23 06:53:24;;;;;;;;;;;16.40;64.40;;;;;;4997847;28;19909;-88
2022/10/23 06:55:50;;;;;;;;;;;16.50;64.50;;;;;;5016082;28;19944;-89
2022/10/23 06:58:16;;;;;;;;;;;16.50;64.50;;;;;;4998702;28;19917;-88
2022/10/23 07:00:43;;;;;;;;;;;16.60;64.50;;;;;;4997769;28;20277;-89
2022/10/23 07:03:09;;;;;;;;;;;16.70;64.60;;;;;;4998278;28;19967;-88
2022/10/23 07:05:35;;;;;;;;;;;16.80;64.70;;;;;;5002713;28;19937;-89
2022/10/23 07:08:01;;;;;;;;;;;16.80;64.70;;;;;;5019313;28;20020;-90
2022/10/23 07:10:27;;;;;;;;;;;16.90;64.70;;;;;;4995979;28;20060;-90
2022/10/23 07:12:53;;;;;;;;;;;17.00;64.70;;;;;;4997968;28;19925;-88
2022/10/23 07:15:19;;;;;;;;;;;17.10;64.60;;;;;;5015468;28;19917;-89
2022/10/23 07:17:45;;;;;;;;;;;17.20;64.70;;;;;;4985746;28;19941;-88
2022/10/23 07:20:11;;;;;;;;;;;17.20;64.70;;;;;;5009345;28;19936;-89
2022/10/23 07:22:37;;;;;;;;;;;17.20;64.80;;;;;;5010826;28;20288;-90
2022/10/23 07:25:03;;;;;;;;;;;17.30;64.70;;;;;;5018583;28;20372;-89
2022/10/23 07:27:34;;;;;;;;;;;17.40;64.80;;;;;;5012255;28;19914;-89
2022/10/23 07:30:00;;;;;;;;;;;17.50;64.90;;;;;;4988400;28;20575;-89
2022/10/23 07:32:27;;;;;;;;;;;17.50;65.00;;;;;;4987550;28;19918;-87
2022/10/23 07:34:53;;;;;;;;;;;17.60;64.90;;;;;;5015210;28;20479;-88
2022/10/23 07:37:18;;;;;;;;;;;17.70;64.90;;;;;;5017034;28;20357;-87
2022/10/23 07:39:45;;;;;;;;;;;17.70;64.80;;;;;;5009696;28;20384;-88
2022/10/23 07:42:11;;;;;;;;;;;17.80;64.90;;;;;;5007660;28;19949;-88
2022/10/23 07:44:36;;;;;;;;;;;17.80;65.00;;;;;;5015044;28;20150;-88
2022/10/23 07:47:02;;;;;;;;;;;17.90;65.00;;;;;;4988792;28;20368;-87
2022/10/23 07:49:28;;;;;;;;;;;18.00;65.10;;;;;;4996840;28;20391;-90
2022/10/23 07:51:57;;;;;;;;;;;18.10;65.30;;;;;;4996149;28;19967;-88
2022/10/23 07:54:23;;;;;;;;;;;18.20;65.50;;;;;;4992847;28;19934;-88
2022/10/23 07:56:49;;;;;;;;;;;18.40;65.70;;;;;;5005389;28;19918;-89
2022/10/23 07:59:15;;;;;;;;;;;18.60;65.70;;;;;;4999792;28;19992;-89
2022/10/23 08:01:41;;;;;;;;;;;18.70;65.80;;;;;;4994970;28;19945;-89
2022/10/23 08:04:08;;;;;;;;;;;18.90;65.80;;;;;;4993314;28;19968;-89
2022/10/23 08:06:37;;;;;;;;;;;19.00;65.90;;;;;;4993190;28;19926;-90
2022/10/23 08:09:03;;;;;;;;;;;19.20;65.80;;;;;;4992248;28;19925;-90
2022/10/23 08:11:34;;;;;;;;;;;19.30;65.80;;;;;;4986004;28;19913;-89
2022/10/23 08:14:03;;;;;;;;;;;19.50;65.70;;;;;;4977135;28;19920;-89
2022/10/23 08:16:29;;;;;;;;;;;19.60;65.90;;;;;;4989877;28;19914;-89
2022/10/23 08:18:54;;;;;;;;;;;19.80;66.20;;;;;;4989220;28;19981;-88
2022/10/23 08:21:20;;;;;;;;;;;20.00;66.50;;;;;;4992730;28;19972;-89
2022/10/23 08:23:46;;;;;;;;;;;20.30;66.60;;;;;;4987820;28;19914;-89
2022/10/23 08:26:12;;;;;;;;;;;20.50;66.60;;;;;;4966412;28;19933;-88
2022/10/23 08:28:38;;;;;;;;;;;20.60;66.40;;;;;;4993850;28;19997;-91
2022/10/23 08:31:08;;;;;;;;;;;20.80;66.30;;;;;;4992674;28;19968;-89
2022/10/23 08:33:34;;;;;;;;;;;20.90;65.80;;;;;;4985163;28;19929;-91
2022/10/23 08:35:59;;;;;;;;;;;21.00;65.30;;;;;;4991972;28;19918;-91
2022/10/23 08:38:25;;;;;;;;;;;21.00;65.20;;;;;;4989566;28;19914;-88
2022/10/23 08:40:52;;;;;;;;;;;21.00;65.00;;;;;;4966842;28;20037;-89
2022/10/23 08:43:28;;;;;;;;;;;21.00;64.60;;;;;;4990067;28;20230;-89
2022/10/23 08:46:05;;;;;;;;;;;21.00;64.60;;;;;;4990714;28;20388;-90
2022/10/23 08:48:37;;;;;;;;;;;21.10;64.40;;;;;;4992549;28;20352;-90
2022/10/23 08:51:15;;;;;;;;;;;21.10;64.90;;;;;;4992672;28;19925;-90
2022/10/23 08:53:49;;;;;;;;;;;21.20;64.90;;;;;;4992849;28;19981;-90
2022/10/23 08:56:20;;;;;;;;;;;21.20;65.10;;;;;;4990846;28;19922;-88
2022/10/23 08:58:47;;;;;;;;;;;21.30;65.30;;;;;;4994489;28;19918;-89
2022/10/23 09:01:26;;;;;;;;;;;21.40;65.30;;;;;;5012976;28;20264;-89
2022/10/23 09:03:52;;;;;;;;;;;21.50;65.10;;;;;;5011187;28;19917;-89
2022/10/23 09:06:24;;;;;;;;;;;21.50;65.30;;;;;;5003496;28;19928;-89
2022/10/23 09:08:57;;;;;;;;;;;21.60;65.10;;;;;;5006926;28;19967;-90
2022/10/23 09:11:29;;;;;;;;;;;21.70;64.80;;;;;;5010940;28;20288;-90
2022/10/23 09:13:55;;;;;;;;;;;21.70;64.40;;;;;;4982157;28;19921;-88
2022/10/23 09:16:39;;;;;;;;;;;21.70;64.60;;;;;;4982328;28;20296;-89
2022/10/23 09:19:29;;;;;;;;;;;21.80;64.60;;;;;;4991214;28;19921;-89
2022/10/23 09:21:55;;;;;;;;;;;21.80;64.50;;;;;;4995298;28;19920;-90
2022/10/23 09:24:22;;;;;;;;;;;21.80;64.30;;;;;;4994150;28;19924;-89
2022/10/23 09:26:50;;;;;;;;;;;21.90;64.60;;;;;;4992939;28;19966;-88
2022/10/23 09:29:34;;;;;;;;;;;21.90;64.50;;;;;;4993393;28;19971;-89
2022/10/23 09:32:01;;;;;;;;;;;22.00;64.30;;;;;;5005985;28;19917;-87
2022/10/23 09:34:28;;;;;;;;;;;22.10;64.40;;;;;;4993655;28;19921;-89
2022/10/23 09:36:55;;;;;;;;;;;22.10;64.30;;;;;;4992729;28;19965;-87
2022/10/23 09:39:22;;;;;;;;;;;22.20;64.20;;;;;;5009596;28;20399;-89
2022/10/23 09:41:49;;;;;;;;;;;22.30;64.50;;;;;;4993012;28;20023;-90
2022/10/23 09:44:20;;;;;;;;;;;22.50;64.90;;;;;;5010049;28;20000;-90
2022/10/23 09:46:46;;;;;;;;;;;22.70;64.80;;;;;;5010498;28;20300;-88
2022/10/23 09:49:17;;;;;;;;;;;22.90;64.90;;;;;;5010896;28;20358;-88
2022/10/23 09:52:08;;;;;;;;;;;23.10;64.40;;;;;;5011231;28;19990;-89
2022/10/23 09:54:50;;;;;;;;;;;23.30;63.90;;;;;;4979920;28;19925;-91
2022/10/23 09:57:18;;;;;;;;;;;23.50;63.30;;;;;;5000363;28;19932;-90
2022/10/23 09:59:49;;;;;;;;;;;23.50;62.40;;;;;;4993720;28;19925;-88
2022/10/23 10:02:29;;;;;;;;;;;23.60;61.70;;;;;;4973318;28;19909;-89
2022/10/23 10:04:54;;;;;;;;;;;23.60;61.20;;;;;;4973088;28;19932;-89
2022/10/23 10:07:24;;;;;;;;;;;23.50;60.50;;;;;;4976793;28;19914;-87
2022/10/23 10:09:51;;;;;;;;;;;23.60;60.90;;;;;;4991280;28;20482;-91
2022/10/23 10:12:23;;;;;;;;;;;23.80;61.50;;;;;;4973854;28;19988;-88
2022/10/23 10:14:48;;;;;;;;;;;24.00;62.00;;;;;;4991403;28;19925;-89
2022/10/23 10:17:33;;;;;;;;;;;24.10;61.10;;;;;;4999144;28;20396;-90
2022/10/23 10:20:01;;;;;;;;;;;24.20;60.50;;;;;;4973732;28;19929;-90
2022/10/23 10:22:27;;;;;;;;;;;24.40;61.20;;;;;;4993620;28;20312;-89
2022/10/23 10:25:08;;;;;;;;;;;24.60;60.50;;;;;;4975805;28;19997;-89
2022/10/23 10:27:33;;;;;;;;;;;24.80;60.00;;;;;;4992830;28;19910;-89
2022/10/23 10:30:02;;;;;;;;;;;25.00;59.90;;;;;;4990900;28;19933;-90
2022/10/23 10:32:34;;;;;;;;;;;25.30;60.00;;;;;;4990120;28;20442;-90
2022/10/23 10:35:15;;;;;;;;;;;25.50;58.90;;;;;;4993078;28;20336;-88
2022/10/23 10:38:10;;;;;;;;;;;25.60;58.10;;;;;;4992898;28;19953;-89
2022/10/23 10:40:46;;;;;;;;;;;25.60;57.50;;;;;;4904541;28;20049;-90
2022/10/23 10:43:12;;;;;;;;;;;25.60;57.20;;;;;;4974439;28;20003;-90
2022/10/23 10:45:47;;;;;;;;;;;25.60;56.80;;;;;;4992033;28;19969;-90
2022/10/23 10:48:31;;;;;;;;;;;25.60;56.90;;;;;;4994588;28;20004;-89
2022/10/23 10:51:07;;;;;;;;;;;25.60;56.60;;;;;;4984202;28;19951;-89
2022/10/23 10:53:39;;;;;;;;;;;25.60;57.20;;;;;;4996095;28;20408;-89
2022/10/23 10:56:09;;;;;;;;;;;25.60;56.40;;;;;;4996107;28;19917;-88
2022/10/23 10:58:34;;;;;;;;;;;25.60;55.80;;;;;;5013352;28;19925;-91
2022/10/23 11:01:02;;;;;;;;;;;25.60;55.30;;;;;;4997681;28;19929;-91
2022/10/23 11:03:33;;;;;;;;;;;25.70;55.70;;;;;;4997145;28;19984;-90
2022/10/23 11:05:59;;;;;;;;;;;25.70;55.60;;;;;;5012868;28;19982;-90
2022/10/23 11:08:51;;;;;;;;;;;25.70;54.70;;;;;;4988601;28;20049;-88
2022/10/23 11:11:29;;;;;;;;;;;25.80;54.40;;;;;;4989497;28;19917;-90
2022/10/23 11:13:56;;;;;;;;;;;25.80;55.30;;;;;;4976749;28;19909;-89
2022/10/23 11:16:42;;;;;;;;;;;26.00;54.70;;;;;;5000605;28;19937;-89
2022/10/23 11:19:13;;;;;;;;;;;26.10;54.80;;;;;;4995718;28;19956;-87
2022/10/23 11:21:43;;;;;;;;;;;26.20;53.80;;;;;;4994516;28;20498;-90
2022/10/23 11:24:14;;;;;;;;;;;26.30;53.80;;;;;;4976800;28;19964;-90
2022/10/23 11:27:02;;;;;;;;;;;26.50;53.40;;;;;;4983039;28;19988;-90
2022/10/23 11:30:00;;;;;;;;;;;26.70;52.70;;;;;;4992690;28;19922;-89
2022/10/23 11:32:46;;;;;;;;;;;26.70;52.70;;;;;;4980304;28;20293;-89
2022/10/23 11:35:29;;;;;;;;;;;26.80;52.70;;;;;;4993998;28;19918;-89
2022/10/23 11:38:14;;;;;;;;;;;26.70;51.60;;;;;;4992147;28;19917;-89
2022/10/23 11:40:51;;;;;;;;;;;26.70;51.90;;;;;;4974711;28;20455;-89
2022/10/23 11:43:27;;;;;;;;;;;26.60;50.60;;;;;;4994137;28;20380;-88
2022/10/23 11:45:54;;;;;;;;;;;26.60;51.00;;;;;;4989208;28;19952;-90
2022/10/23 11:48:21;;;;;;;;;;;26.40;51.20;;;;;;4992871;28;19924;-89
2022/10/23 11:50:52;;;;;;;;;;;26.40;51.80;;;;;;4994357;28;20033;-90
2022/10/23 11:53:25;;;;;;;;;;;26.30;51.40;;;;;;4992132;28;19914;-88
2022/10/23 11:56:23;;;;;;;;;;;26.30;50.70;;;;;;4991875;28;19926;-89
2022/10/23 11:58:50;;;;;;;;;;;26.30;51.10;;;;;;5002431;28;20283;-88
2022/10/23 12:01:35;;;;;;;;;;;26.30;51.50;;;;;;4991323;28;19922;-90
2022/10/23 12:04:03;;;;;;;;;;;26.30;51.80;;;;;;4999645;28;20414;-91
2022/10/23 12:06:34;;;;;;;;;;;26.40;51.10;;;;;;4991459;28;19973;-89
2022/10/23 12:09:18;;;;;;;;;;;26.30;51.20;;;;;;4977860;28;20436;-89
2022/10/23 12:11:46;;;;;;;;;;;26.40;51.90;;;;;;4974143;28;19924;-90
2022/10/23 12:14:31;;;;;;;;;;;26.40;51.00;;;;;;4973464;28;19918;-89
2022/10/23 12:16:56;;;;;;;;;;;26.40;51.10;;;;;;4979957;28;19914;-90
2022/10/23 12:19:23;;;;;;;;;;;26.40;50.50;;;;;;4991132;28;20285;-89
2022/10/23 12:21:50;;;;;;;;;;;26.30;50.00;;;;;;5002682;28;20339;-89
2022/10/23 12:24:30;;;;;;;;;;;26.20;49.60;;;;;;4983944;28;19922;-90
2022/10/23 12:27:01;;;;;;;;;;;26.10;49.40;;;;;;4987476;28;19926;-89
2022/10/23 12:29:44;;;;;;;;;;;26.00;50.00;;;;;;4990707;28;19918;-90
2022/10/23 12:32:29;;;;;;;;;;;26.00;49.30;;;;;;4986262;28;19922;-90
2022/10/23 12:35:07;;;;;;;;;;;25.80;48.80;;;;;;5004482;28;19918;-88
2022/10/23 12:37:35;;;;;;;;;;;25.80;49.40;;;;;;5003779;28;19917;-91
2022/10/23 12:40:01;;;;;;;;;;;25.70;49.50;;;;;;4976467;28;19922;-89
2022/10/23 12:42:29;;;;;;;;;;;25.70;48.90;;;;;;4991240;28;19952;-88
2022/10/23 12:45:13;;;;;;;;;;;25.60;48.80;;;;;;4977055;28;19913;-89
2022/10/23 12:47:41;;;;;;;;;;;25.50;48.50;;;;;;4974760;28;19918;-89
2022/10/23 12:50:17;;;;;;;;;;;25.40;48.10;;;;;;4986768;28;19917;-89
2022/10/23 12:52:53;;;;;;;;;;;25.30;48.00;;;;;;4972595;28;19918;-89
2022/10/23 12:55:20;;;;;;;;;;;25.20;48.60;;;;;;4992010;28;19918;-88
2022/10/23 12:57:46;;;;;;;;;;;25.10;47.90;;;;;;4986676;28;19995;-88
2022/10/23 13:00:18;;;;;;;;;;;25.10;47.80;;;;;;4991138;28;20062;-89
2022/10/23 13:02:43;;;;;;;;;;;25.10;48.40;;;;;;4988240;28;19914;-89
2022/10/23 13:05:12;;;;;;;;;;;25.00;48.80;;;;;;4991002;28;20384;-89
2022/10/23 13:07:41;;;;;;;;;;;25.00;48.50;;;;;;4989359;28;19914;-89
2022/10/23 13:10:10;;;;;;;;;;;24.90;48.60;;;;;;4989715;28;19921;-90
2022/10/23 13:12:37;;;;;;;;;;;24.80;48.50;;;;;;4989758;28;20004;-87
2022/10/23 13:15:06;;;;;;;;;;;24.80;48.70;;;;;;4989324;28;19921;-89
2022/10/23 13:17:44;;;;;;;;;;;24.80;48.80;;;;;;4988708;28;20513;-89
2022/10/23 13:20:21;;;;;;;;;;;24.80;49.00;;;;;;4989705;28;20485;-87
2022/10/23 13:22:48;;;;;;;;;;;24.70;48.80;;;;;;4989494;28;20354;-87
2022/10/23 13:25:21;;;;;;;;;;;24.70;48.90;;;;;;4992294;28;19936;-86
2022/10/23 13:27:48;;;;;;;;;;;24.70;49.00;;;;;;4996831;28;19960;-89
2022/10/23 13:30:28;;;;;;;;;;;24.70;48.60;;;;;;4990332;28;20119;-88
2022/10/23 13:32:54;;;;;;;;;;;24.60;48.80;;;;;;4991034;28;20005;-90
2022/10/23 13:35:21;;;;;;;;;;;24.70;48.90;;;;;;4992303;28;20432;-89
2022/10/23 13:37:47;;;;;;;;;;;24.70;49.10;;;;;;4989140;28;19918;-89
2022/10/23 13:40:31;;;;;;;;;;;24.70;49.10;;;;;;4988254;28;19968;-90
2022/10/23 13:43:01;;;;;;;;;;;24.80;49.00;;;;;;4987947;28;19918;-90
2022/10/23 13:45:28;;;;;;;;;;;24.80;49.20;;;;;;4988673;28;19930;-88
2022/10/23 13:47:54;;;;;;;;;;;24.90;49.20;;;;;;4988409;28;19914;-88
2022/10/23 13:50:20;;;;;;;;;;;25.00;49.20;;;;;;4985525;28;19921;-90
2022/10/23 13:52:47;;;;;;;;;;;25.10;48.80;;;;;;4984999;28;19917;-89
2022/10/23 13:55:23;;;;;;;;;;;25.10;48.40;;;;;;4988445;28;19918;-88
2022/10/23 13:57:49;;;;;;;;;;;25.20;47.90;;;;;;4982243;28;19929;-89
2022/10/23 14:00:15;;;;;;;;;;;25.10;47.00;;;;;;4988903;28;20399;-91
2022/10/23 14:02:41;;;;;;;;;;;25.10;46.90;;;;;;4985355;28;19925;-88
2022/10/23 14:05:07;;;;;;;;;;;25.10;46.40;;;;;;4990067;28;19926;-89
2022/10/23 14:07:33;;;;;;;;;;;25.10;46.20;;;;;;4986489;28;20369;-88
2022/10/23 14:10:04;;;;;;;;;;;25.10;46.00;;;;;;4988743;28;20273;-89
2022/10/23 14:12:30;;;;;;;;;;;25.10;45.40;;;;;;4991453;28;19924;-90
2022/10/23 14:14:56;;;;;;;;;;;25.10;45.30;;;;;;4989412;28;20169;-90
2022/10/23 14:17:22;;;;;;;;;;;25.10;45.30;;;;;;4982800;28;19918;-90
2022/10/23 14:19:49;;;;;;;;;;;25.20;45.30;;;;;;4985518;28;20332;-89
2022/10/23 14:22:15;;;;;;;;;;;25.20;45.10;;;;;;4985458;28;20301;-89
2022/10/23 14:24:41;;;;;;;;;;;25.20;45.00;;;;;;4991634;28;19925;-89
2022/10/23 14:27:16;;;;;;;;;;;25.20;44.80;;;;;;4986250;28;19969;-89
2022/10/23 14:29:42;;;;;;;;;;;25.20;44.70;;;;;;4984282;28;19922;-86